createdAt,value
2019-01-23T07:03:37.690Z,-10.40
2019-01-23T07:07:56.464Z,-10.30
2019-01-23T07:12:24.066Z,-10.30
2019-01-23T07:16:44.198Z,-10.20
2019-01-23T07:21:07.629Z,-10.10
2019-01-23T07:25:24.264Z,-10.00
2019-01-23T07:30:30.672Z,-9.90
2019-01-23T07:45:58.172Z,-9.70
2019-01-23T07:51:07.816Z,-9.60
2019-01-23T09:01:28.847Z,-6.60
2019-01-23T09:05:52.226Z,-6.30
2019-01-23T09:10:26.254Z,-6.20
2019-01-23T09:35:50.470Z,-6.20
2019-01-23T09:40:24.073Z,-5.90
2019-01-23T09:45:16.670Z,-5.50
2019-01-23T09:50:16.870Z,-5.20
2019-01-23T09:54:33.836Z,-5.10
2019-01-23T10:09:37.748Z,-4.50
2019-01-23T10:14:06.189Z,-4.30
2019-01-23T10:18:30.301Z,-4.20
2019-01-23T10:22:47.781Z,-4.20
2019-01-23T10:27:04.771Z,-4.10
2019-01-23T10:31:21.192Z,-4.00
2019-01-23T10:35:37.637Z,-4.00
2019-01-23T10:39:54.119Z,-3.90
2019-01-23T10:44:11.048Z,-3.80
2019-01-23T10:48:27.789Z,-3.70
2019-01-23T10:52:44.404Z,-3.50
2019-01-23T10:57:01.149Z,-3.40
2019-01-23T11:01:17.606Z,-3.20
2019-01-23T11:05:34.185Z,-3.10
2019-01-23T11:09:52.196Z,-2.90
2019-01-23T11:14:08.708Z,-2.70
2019-01-23T11:18:25.221Z,-2.60
2019-01-23T11:22:41.697Z,-2.30
2019-01-23T11:26:58.532Z,-2.20
2019-01-23T11:31:20.298Z,-2.20
2019-01-23T11:35:33.530Z,-2.20
2019-01-23T11:39:49.978Z,-2.40
2019-01-23T11:44:06.904Z,-2.50
2019-01-23T11:48:25.522Z,-2.70
2019-01-23T11:52:44.641Z,-2.60
2019-01-23T11:57:02.046Z,-2.60
2019-01-23T12:01:27.350Z,-2.50
2019-01-23T12:05:43.431Z,-2.40
2019-01-23T12:10:11.829Z,-2.40
2019-01-23T12:14:36.006Z,-2.50
2019-01-23T12:18:54.994Z,-2.40
2019-01-23T12:23:11.755Z,-2.30
2019-01-23T12:27:36.128Z,-2.20
2019-01-23T12:31:52.872Z,-2.00
2019-01-23T12:36:09.464Z,-1.80
2019-01-23T12:40:25.898Z,-1.70
2019-01-23T12:44:42.632Z,-1.80
2019-01-23T12:48:59.211Z,-2.10
2019-01-23T12:53:15.815Z,-2.40
2019-01-23T12:57:32.261Z,-2.70
2019-01-23T13:01:48.865Z,-2.90
2019-01-23T13:06:05.282Z,-2.90
2019-01-23T13:10:22.957Z,-2.90
2019-01-23T13:14:39.499Z,-2.70
2019-01-23T13:18:55.913Z,-2.60
2019-01-23T13:23:12.374Z,-2.60
2019-01-23T13:27:28.821Z,-2.70
2019-01-23T13:31:49.098Z,-2.80
2019-01-23T13:36:03.680Z,-2.90
2019-01-23T13:40:22.841Z,-3.00
2019-01-23T13:44:39.302Z,-3.00
2019-01-23T13:48:55.714Z,-3.10
2019-01-23T13:53:12.139Z,-3.20
2019-01-23T13:57:28.602Z,-3.30
2019-01-23T14:01:45.035Z,-3.30
2019-01-23T14:06:01.622Z,-3.40
2019-01-23T14:10:18.061Z,-3.40
2019-01-23T14:14:34.520Z,-3.40
2019-01-23T14:18:54.142Z,-3.40
2019-01-23T14:23:10.620Z,-3.30
2019-01-23T14:27:27.072Z,-3.30
2019-01-23T14:31:43.499Z,-3.20
2019-01-23T14:35:59.945Z,-3.20
2019-01-23T14:40:16.368Z,-3.20
2019-01-23T14:44:32.817Z,-3.20
2019-01-23T14:48:49.265Z,-3.30
2019-01-23T14:53:05.699Z,-3.30
2019-01-23T14:57:22.157Z,-3.30
2019-01-23T15:01:38.638Z,-3.40
2019-01-23T15:05:55.058Z,-3.40
2019-01-23T15:10:20.888Z,-3.50
2019-01-23T15:14:37.332Z,-3.60
2019-01-23T15:18:53.855Z,-3.80
2019-01-23T15:23:10.295Z,-3.90
2019-01-23T15:27:27.134Z,-4.10
2019-01-23T15:31:43.917Z,-4.30
2019-01-23T15:36:00.332Z,-4.50
2019-01-23T15:40:22.503Z,-4.70
2019-01-23T15:44:38.909Z,-4.90
2019-01-23T15:48:55.373Z,-5.10
2019-01-23T15:53:12.096Z,-5.30
2019-01-23T15:57:28.548Z,-5.50
2019-01-23T16:01:44.960Z,-5.70
2019-01-23T16:06:01.378Z,-5.80
2019-01-23T16:10:24.680Z,-5.90
2019-01-23T16:14:41.096Z,-6.10
2019-01-23T16:18:57.905Z,-6.20
2019-01-23T16:23:14.338Z,-6.30
2019-01-23T16:27:31.250Z,-6.40
2019-01-23T16:31:47.767Z,-6.50
2019-01-23T16:36:04.422Z,-6.60
2019-01-23T16:40:20.894Z,-6.70
2019-01-23T16:44:37.263Z,-6.80
2019-01-23T16:48:53.718Z,-6.80
2019-01-23T16:53:10.167Z,-6.80
2019-01-23T16:57:27.018Z,-6.90
2019-01-23T17:01:43.456Z,-7.00
2019-01-23T17:05:59.890Z,-7.00
2019-01-23T17:10:21.544Z,-7.10
2019-01-23T17:14:37.988Z,-7.20
2019-01-23T17:18:55.655Z,-7.20
2019-01-23T17:23:12.444Z,-7.30
2019-01-23T17:27:28.872Z,-7.30
2019-01-23T17:31:45.332Z,-7.30
2019-01-23T17:36:01.847Z,-7.40
2019-01-23T17:40:20.906Z,-7.40
2019-01-23T17:44:37.415Z,-7.50
2019-01-23T17:48:54.167Z,-7.50
2019-01-23T17:53:10.606Z,-7.50
2019-01-23T17:57:27.072Z,-7.50
2019-01-23T18:01:43.516Z,-7.50
2019-01-23T18:05:59.958Z,-7.50
2019-01-23T18:10:16.717Z,-7.50
2019-01-23T18:14:33.167Z,-7.50
2019-01-23T18:18:49.891Z,-7.60
2019-01-23T18:23:06.357Z,-7.60
2019-01-23T18:27:23.094Z,-7.60
2019-01-23T18:31:39.545Z,-7.60
2019-01-23T18:36:33.429Z,-7.60
2019-01-23T18:41:15.171Z,-7.60
2019-01-23T18:45:35.336Z,-7.70
2019-01-23T18:50:15.817Z,-7.60
2019-01-23T18:54:32.328Z,-7.60
2019-01-23T18:58:49.089Z,-7.50
2019-01-23T19:03:07.138Z,-7.50
2019-01-23T19:07:24.584Z,-7.40
2019-01-23T19:11:41.390Z,-7.40
2019-01-23T19:15:58.243Z,-7.40
2019-01-23T19:20:17.347Z,-7.40
2019-01-23T19:24:34.314Z,-7.40
2019-01-23T19:28:52.085Z,-7.50
2019-01-23T19:33:13.462Z,-7.40
2019-01-23T19:37:27.896Z,-7.40
2019-01-23T19:41:44.681Z,-7.50
2019-01-23T19:46:01.247Z,-7.50
2019-01-23T19:50:18.039Z,-7.50
2019-01-23T19:54:34.842Z,-7.50
2019-01-23T19:58:53.767Z,-7.60
2019-01-23T20:03:10.325Z,-7.60
2019-01-23T20:07:28.107Z,-7.70
2019-01-23T20:11:44.619Z,-7.70
2019-01-23T20:16:01.385Z,-7.80
2019-01-23T20:20:18.217Z,-7.80
2019-01-23T20:24:38.845Z,-7.90
2019-01-23T20:28:55.586Z,-7.90
2019-01-23T20:33:12.066Z,-8.00
2019-01-23T20:37:28.551Z,-8.00
2019-01-23T20:41:45.066Z,-8.00
2019-01-23T20:46:01.547Z,-8.00
2019-01-23T20:50:20.712Z,-8.00
2019-01-23T20:54:37.527Z,-8.10
2019-01-23T20:58:53.979Z,-8.10
2019-01-23T21:03:10.466Z,-8.20
2019-01-23T21:07:26.903Z,-8.20
2019-01-23T21:11:43.464Z,-8.20
2019-01-23T21:15:59.923Z,-8.20
2019-01-23T21:20:17.039Z,-8.20
2019-01-23T21:24:33.463Z,-8.20
2019-01-23T21:28:50.197Z,-8.20
2019-01-23T21:33:06.690Z,-8.30
2019-01-23T21:37:23.105Z,-8.30
2019-01-23T21:41:39.863Z,-8.30
2019-01-23T21:45:56.307Z,-8.30
2019-01-23T21:50:22.547Z,-8.40
2019-01-23T21:54:39.001Z,-8.40
2019-01-23T21:58:55.435Z,-8.40
2019-01-23T22:03:11.893Z,-8.40
2019-01-23T22:07:28.334Z,-8.40
2019-01-23T22:11:44.751Z,-8.40
2019-01-23T22:16:01.196Z,-8.40
2019-01-23T22:20:19.354Z,-8.40
2019-01-23T22:24:36.434Z,-8.40
2019-01-23T22:28:52.867Z,-8.30
2019-01-23T22:33:09.329Z,-8.20
2019-01-23T22:37:25.748Z,-8.20
2019-01-23T22:41:42.174Z,-8.10
2019-01-23T22:45:58.946Z,-8.00
2019-01-23T22:50:17.783Z,-7.80
2019-01-23T22:54:34.192Z,-7.70
2019-01-23T22:58:50.942Z,-7.50
2019-01-23T23:03:09.777Z,-7.40
2019-01-23T23:07:26.215Z,-7.30
2019-01-23T23:11:43.037Z,-7.20
2019-01-23T23:15:59.470Z,-7.10
2019-01-23T23:20:15.929Z,-7.10
2019-01-23T23:24:32.342Z,-7.00
2019-01-23T23:28:49.223Z,-6.90
2019-01-23T23:33:05.619Z,-6.70
2019-01-23T23:37:22.115Z,-6.60
2019-01-23T23:41:38.814Z,-6.50
2019-01-23T23:45:55.397Z,-6.30
2019-01-23T23:50:14.525Z,-6.20
2019-01-23T23:54:30.969Z,-6.10
2019-01-23T23:58:47.760Z,-6.10
